EWG5PM ENBR-EDXW
Flight info
| Callsign | EWG5PM |
|---|---|
| Flight time | 1h 7m |
| Altitude | 39000 |
| Route | TUXIL DCT ZOL DCT ATTUS DCT OLDIP |
| Aircraft | A320/M-SDE3FGHIRWY/LB1 |
Departure
| Time | 2026-04-28 18:06 |
|---|---|
| Airport | Bergen Airport, Flesland (ENBR) |
Arrival
| Time | 2026-04-28 19:14 |
|---|---|
| Airport | Westerland Sylt Airport (EDXW) |
| Time | Latitude | Longitude | Altitude | Speed | Heading |
|---|---|---|---|---|---|
| 2026-04-28 17:49 | 60.29001 | 5.22705 | 162 ft | 0 kts | 210° |
| 2026-04-28 17:56 | 60.29021 | 5.22727 | 162 ft | 4 kts | 207° |
| 2026-04-28 17:56 | 60.29043 | 5.22755 | 163 ft | 4 kts | 243° |
| 2026-04-28 17:56 | 60.29046 | 5.22773 | 163 ft | 0 kts | 279° |
| 2026-04-28 18:01 | 60.29046 | 5.22771 | 163 ft | 1 kts | 279° |
| 2026-04-28 18:02 | 60.29056 | 5.22576 | 163 ft | 18 kts | 261° |
| 2026-04-28 18:02 | 60.29031 | 5.22424 | 163 ft | 4 kts | 246° |
| 2026-04-28 18:02 | 60.29012 | 5.22388 | 163 ft | 5 kts | 212° |
| 2026-04-28 18:02 | 60.28977 | 5.22373 | 162 ft | 6 kts | 184° |
| 2026-04-28 18:03 | 60.28938 | 5.22309 | 162 ft | 13 kts | 237° |
| 2026-04-28 18:03 | 60.28848 | 5.22306 | 161 ft | 17 kts | 168° |
| 2026-04-28 18:03 | 60.28667 | 5.22365 | 160 ft | 31 kts | 171° |
| 2026-04-28 18:03 | 60.28451 | 5.22441 | 158 ft | 32 kts | 169° |
| 2026-04-28 18:04 | 60.28290 | 5.22489 | 156 ft | 21 kts | 172° |
| 2026-04-28 18:04 | 60.28140 | 5.22541 | 155 ft | 22 kts | 171° |
| 2026-04-28 18:04 | 60.28057 | 5.22443 | 154 ft | 0 kts | 258° |
| 2026-04-28 18:04 | 60.28054 | 5.22412 | 154 ft | 11 kts | 258° |
| 2026-04-28 18:05 | 60.28093 | 5.22237 | 153 ft | 16 kts | 344° |
| 2026-04-28 18:05 | 60.28167 | 5.22211 | 154 ft | 17 kts | 350° |
| 2026-04-28 18:05 | 60.28610 | 5.22059 | 160 ft | 96 kts | 349° |
| 2026-04-28 18:05 | 60.29473 | 5.21731 | 167 ft | 154 kts | 348° |
| 2026-04-28 18:06 | 60.30596 | 5.21287 | 647 ft | 167 kts | 349° |
| 2026-04-28 18:06 | 60.31758 | 5.20889 | 1344 ft | 173 kts | 350° |
| 2026-04-28 18:06 | 60.33027 | 5.20475 | 1778 ft | 195 kts | 350° |
| 2026-04-28 18:06 | 60.34444 | 5.20027 | 2185 ft | 217 kts | 350° |
| 2026-04-28 18:07 | 60.36011 | 5.19522 | 2620 ft | 240 kts | 350° |
| 2026-04-28 18:07 | 60.37741 | 5.18957 | 3238 ft | 261 kts | 350° |
| 2026-04-28 18:07 | 60.39561 | 5.18355 | 4178 ft | 267 kts | 350° |
| 2026-04-28 18:07 | 60.41409 | 5.17739 | 5187 ft | 272 kts | 350° |
| 2026-04-28 18:08 | 60.43289 | 5.17110 | 6184 ft | 276 kts | 350° |
| 2026-04-28 18:08 | 60.45196 | 5.16447 | 7167 ft | 280 kts | 347° |
| 2026-04-28 18:08 | 60.46969 | 5.14841 | 8078 ft | 284 kts | 321° |
| 2026-04-28 18:08 | 60.48213 | 5.11752 | 8985 ft | 287 kts | 294° |
| 2026-04-28 18:09 | 60.48641 | 5.07816 | 9875 ft | 289 kts | 267° |
| 2026-04-28 18:09 | 60.48229 | 5.03822 | 10757 ft | 292 kts | 246° |
| 2026-04-28 18:09 | 60.47089 | 5.00410 | 11603 ft | 296 kts | 223° |
| 2026-04-28 18:09 | 60.45334 | 4.98155 | 12206 ft | 311 kts | 199° |
| 2026-04-28 18:10 | 60.43125 | 4.97652 | 12500 ft | 333 kts | 175° |
| 2026-04-28 18:10 | 60.40769 | 4.98181 | 13074 ft | 344 kts | 173° |
| 2026-04-28 18:10 | 60.38374 | 4.98732 | 13806 ft | 349 kts | 174° |
| 2026-04-28 18:10 | 60.35945 | 4.99272 | 14557 ft | 353 kts | 174° |
| 2026-04-28 18:11 | 60.33504 | 5.00024 | 15269 ft | 358 kts | 164° |
| 2026-04-28 18:11 | 60.31183 | 5.01777 | 15966 ft | 362 kts | 158° |
| 2026-04-28 18:11 | 60.28811 | 5.03708 | 16687 ft | 366 kts | 158° |
| 2026-04-28 18:11 | 60.26471 | 5.05624 | 17358 ft | 369 kts | 158° |
| 2026-04-28 18:12 | 60.24076 | 5.07590 | 18007 ft | 373 kts | 158° |
| 2026-04-28 18:12 | 60.21659 | 5.09569 | 18667 ft | 377 kts | 158° |
| 2026-04-28 18:12 | 60.19218 | 5.11559 | 19293 ft | 381 kts | 158° |
| 2026-04-28 18:12 | 60.16748 | 5.13564 | 19911 ft | 384 kts | 158° |
| 2026-04-28 18:13 | 60.14253 | 5.15582 | 20507 ft | 388 kts | 158° |
| 2026-04-28 18:13 | 60.11734 | 5.17614 | 21087 ft | 391 kts | 158° |
| 2026-04-28 18:13 | 60.09230 | 5.19627 | 21630 ft | 394 kts | 158° |
| 2026-04-28 18:13 | 60.06671 | 5.21680 | 22166 ft | 398 kts | 158° |
| 2026-04-28 18:14 | 60.04089 | 5.23752 | 22698 ft | 401 kts | 158° |
| 2026-04-28 18:14 | 60.01496 | 5.25841 | 23208 ft | 404 kts | 158° |
| 2026-04-28 18:14 | 59.98872 | 5.27955 | 23707 ft | 407 kts | 158° |
| 2026-04-28 18:14 | 59.96231 | 5.30072 | 24191 ft | 410 kts | 159° |
| 2026-04-28 18:15 | 59.93568 | 5.32189 | 24666 ft | 413 kts | 159° |
| 2026-04-28 18:15 | 59.91797 | 5.33595 | 24968 ft | 415 kts | 159° |
| 2026-04-28 18:15 | 59.89102 | 5.35729 | 25420 ft | 418 kts | 159° |
| 2026-04-28 18:15 | 59.86382 | 5.37886 | 25862 ft | 421 kts | 159° |
| 2026-04-28 18:16 | 59.83653 | 5.40051 | 26288 ft | 424 kts | 159° |
| 2026-04-28 18:16 | 59.80895 | 5.42237 | 26711 ft | 427 kts | 159° |
| 2026-04-28 18:16 | 59.78124 | 5.44429 | 27121 ft | 430 kts | 159° |
| 2026-04-28 18:16 | 59.75338 | 5.46631 | 27517 ft | 432 kts | 159° |
| 2026-04-28 18:17 | 59.72535 | 5.48843 | 27925 ft | 435 kts | 159° |
| 2026-04-28 18:17 | 59.69712 | 5.51061 | 28302 ft | 438 kts | 159° |
| 2026-04-28 18:17 | 59.66911 | 5.53253 | 28671 ft | 440 kts | 159° |
| 2026-04-28 18:17 | 59.64053 | 5.55488 | 29035 ft | 443 kts | 159° |
| 2026-04-28 18:18 | 59.61188 | 5.57732 | 29396 ft | 445 kts | 159° |
| 2026-04-28 18:18 | 59.58293 | 5.59995 | 29748 ft | 448 kts | 159° |
| 2026-04-28 18:18 | 59.55390 | 5.62258 | 30074 ft | 450 kts | 159° |
| 2026-04-28 18:18 | 59.53461 | 5.63758 | 30290 ft | 451 kts | 159° |
| 2026-04-28 18:19 | 59.49537 | 5.66802 | 30713 ft | 454 kts | 159° |
| 2026-04-28 18:19 | 59.46585 | 5.69086 | 31024 ft | 457 kts | 159° |
| 2026-04-28 18:19 | 59.43620 | 5.71374 | 31325 ft | 459 kts | 159° |
| 2026-04-28 18:19 | 59.40638 | 5.73673 | 31616 ft | 461 kts | 159° |
| 2026-04-28 18:20 | 59.37661 | 5.75969 | 32017 ft | 460 kts | 159° |
| 2026-04-28 18:20 | 59.34685 | 5.78261 | 32437 ft | 459 kts | 159° |
| 2026-04-28 18:20 | 59.31716 | 5.80543 | 32842 ft | 458 kts | 159° |
| 2026-04-28 18:20 | 59.28789 | 5.82787 | 33224 ft | 457 kts | 159° |
| 2026-04-28 18:21 | 59.25831 | 5.85045 | 33608 ft | 456 kts | 159° |
| 2026-04-28 18:21 | 59.22873 | 5.87300 | 33992 ft | 455 kts | 159° |
| 2026-04-28 18:21 | 59.19913 | 5.89557 | 34372 ft | 455 kts | 159° |
| 2026-04-28 18:21 | 59.16971 | 5.91794 | 34745 ft | 454 kts | 159° |
| 2026-04-28 18:22 | 59.14034 | 5.94020 | 35099 ft | 453 kts | 159° |
| 2026-04-28 18:22 | 59.11099 | 5.96241 | 35437 ft | 452 kts | 159° |
| 2026-04-28 18:22 | 59.08150 | 5.98471 | 36954 ft | 455 kts | 157° |
| 2026-04-28 18:22 | 59.05189 | 6.00707 | 37083 ft | 459 kts | 157° |
| 2026-04-28 18:23 | 59.02200 | 6.02961 | 37221 ft | 463 kts | 157° |
| 2026-04-28 18:23 | 58.99186 | 6.05228 | 37351 ft | 466 kts | 157° |
| 2026-04-28 18:23 | 58.96151 | 6.07504 | 37487 ft | 470 kts | 157° |
| 2026-04-28 18:23 | 58.93083 | 6.09801 | 37662 ft | 472 kts | 157° |
| 2026-04-28 18:24 | 58.90020 | 6.12086 | 37863 ft | 473 kts | 157° |
| 2026-04-28 18:24 | 58.87983 | 6.13604 | 38005 ft | 473 kts | 157° |
| 2026-04-28 18:24 | 58.83905 | 6.16641 | 38300 ft | 474 kts | 157° |
| 2026-04-28 18:24 | 58.80790 | 6.18961 | 38569 ft | 474 kts | 158° |
| 2026-04-28 18:25 | 58.77700 | 6.21256 | 38722 ft | 477 kts | 158° |
| 2026-04-28 18:25 | 58.74594 | 6.23552 | 38862 ft | 479 kts | 158° |
| 2026-04-28 18:25 | 58.71478 | 6.25852 | 38994 ft | 481 kts | 158° |
| 2026-04-28 18:26 | 58.65232 | 6.30460 | 39244 ft | 485 kts | 158° |
| 2026-04-28 18:26 | 58.62074 | 6.32785 | 39381 ft | 486 kts | 158° |
| 2026-04-28 18:26 | 58.58902 | 6.35115 | 39459 ft | 489 kts | 158° |
| 2026-04-28 18:27 | 58.52507 | 6.39791 | 39463 ft | 493 kts | 158° |
| 2026-04-28 18:27 | 58.46084 | 6.44454 | 39459 ft | 493 kts | 158° |
| 2026-04-28 18:28 | 58.39679 | 6.49093 | 39463 ft | 492 kts | 158° |
| 2026-04-28 18:28 | 58.33284 | 6.53721 | 39465 ft | 492 kts | 158° |
| 2026-04-28 18:29 | 58.26919 | 6.58301 | 39469 ft | 492 kts | 158° |
| 2026-04-28 18:29 | 58.20519 | 6.62896 | 39474 ft | 492 kts | 158° |
| 2026-04-28 18:30 | 58.14116 | 6.67474 | 39482 ft | 492 kts | 158° |
| 2026-04-28 18:30 | 58.07711 | 6.72029 | 39489 ft | 491 kts | 159° |
| 2026-04-28 18:31 | 58.01307 | 6.76553 | 39490 ft | 491 kts | 159° |
| 2026-04-28 18:31 | 57.94898 | 6.81074 | 39491 ft | 491 kts | 159° |
| 2026-04-28 18:32 | 57.88514 | 6.85584 | 39493 ft | 490 kts | 159° |
| 2026-04-28 18:32 | 57.82128 | 6.90061 | 39496 ft | 489 kts | 159° |
| 2026-04-28 18:33 | 57.75761 | 6.94504 | 39497 ft | 489 kts | 159° |
| 2026-04-28 18:33 | 57.69424 | 6.98904 | 39500 ft | 488 kts | 159° |
| 2026-04-28 18:34 | 57.63057 | 7.03317 | 39499 ft | 487 kts | 159° |
| 2026-04-28 18:34 | 57.56698 | 7.07704 | 39503 ft | 487 kts | 159° |
| 2026-04-28 18:35 | 57.50345 | 7.12077 | 39501 ft | 487 kts | 159° |
| 2026-04-28 18:35 | 57.43989 | 7.16421 | 39502 ft | 486 kts | 159° |
| 2026-04-28 18:36 | 57.37640 | 7.20755 | 39499 ft | 486 kts | 159° |
| 2026-04-28 18:36 | 57.31300 | 7.25081 | 39504 ft | 486 kts | 159° |
| 2026-04-28 18:37 | 57.24942 | 7.29393 | 39501 ft | 486 kts | 159° |
| 2026-04-28 18:37 | 57.18588 | 7.33674 | 39502 ft | 486 kts | 159° |
| 2026-04-28 18:38 | 57.12276 | 7.37908 | 39500 ft | 486 kts | 159° |
| 2026-04-28 18:38 | 57.05925 | 7.42167 | 39501 ft | 486 kts | 159° |
| 2026-04-28 18:39 | 56.99573 | 7.46419 | 39503 ft | 486 kts | 159° |
| 2026-04-28 18:39 | 56.93217 | 7.50647 | 39502 ft | 486 kts | 159° |
| 2026-04-28 18:40 | 56.86850 | 7.54859 | 39502 ft | 486 kts | 159° |
| 2026-04-28 18:40 | 56.80499 | 7.59048 | 39501 ft | 485 kts | 159° |
| 2026-04-28 18:41 | 56.74148 | 7.63231 | 39507 ft | 485 kts | 159° |
| 2026-04-28 18:41 | 56.67801 | 7.67401 | 39500 ft | 485 kts | 160° |
| 2026-04-28 18:42 | 56.61452 | 7.71549 | 39500 ft | 484 kts | 160° |
| 2026-04-28 18:42 | 56.55154 | 7.75655 | 39495 ft | 484 kts | 160° |
| 2026-04-28 18:43 | 56.48810 | 7.79766 | 39496 ft | 484 kts | 160° |
| 2026-04-28 18:43 | 56.42461 | 7.83869 | 39491 ft | 484 kts | 160° |
| 2026-04-28 18:44 | 56.36113 | 7.87956 | 39493 ft | 484 kts | 160° |
| 2026-04-28 18:44 | 56.26583 | 7.94072 | 39487 ft | 485 kts | 160° |
| 2026-04-28 18:45 | 56.20227 | 7.98132 | 39487 ft | 485 kts | 160° |
| 2026-04-28 18:45 | 56.13858 | 8.02180 | 39487 ft | 485 kts | 160° |
| 2026-04-28 18:46 | 56.10682 | 8.04191 | 39314 ft | 482 kts | 160° |
| 2026-04-28 18:46 | 56.07527 | 8.06187 | 38308 ft | 480 kts | 161° |
| 2026-04-28 18:46 | 56.04389 | 8.08172 | 37084 ft | 478 kts | 161° |
| 2026-04-28 18:46 | 56.01266 | 8.10144 | 35901 ft | 475 kts | 161° |
| 2026-04-28 18:47 | 55.98157 | 8.12107 | 34734 ft | 471 kts | 161° |
| 2026-04-28 18:47 | 55.95091 | 8.14046 | 33618 ft | 463 kts | 162° |
| 2026-04-28 18:47 | 55.92079 | 8.15946 | 32560 ft | 454 kts | 162° |
| 2026-04-28 18:47 | 55.89165 | 8.17776 | 32032 ft | 435 kts | 162° |
| 2026-04-28 18:48 | 55.86342 | 8.19546 | 31238 ft | 425 kts | 163° |
| 2026-04-28 18:48 | 55.83573 | 8.21277 | 30571 ft | 420 kts | 163° |
| 2026-04-28 18:48 | 55.80853 | 8.22969 | 30266 ft | 418 kts | 163° |
| 2026-04-28 18:48 | 55.78120 | 8.24665 | 29706 ft | 414 kts | 163° |
| 2026-04-28 18:49 | 55.75420 | 8.26337 | 29159 ft | 409 kts | 163° |
| 2026-04-28 18:49 | 55.74512 | 8.26901 | 28977 ft | 408 kts | 163° |
| 2026-04-28 18:49 | 55.70100 | 8.29644 | 28087 ft | 400 kts | 163° |
| 2026-04-28 18:49 | 55.67478 | 8.31272 | 27547 ft | 397 kts | 163° |
| 2026-04-28 18:50 | 55.64891 | 8.32873 | 27080 ft | 392 kts | 163° |
| 2026-04-28 18:50 | 55.62326 | 8.34457 | 26583 ft | 388 kts | 163° |
| 2026-04-28 18:50 | 55.59786 | 8.36020 | 26118 ft | 384 kts | 163° |
| 2026-04-28 18:50 | 55.57280 | 8.37566 | 25649 ft | 380 kts | 162° |
| 2026-04-28 18:51 | 55.54794 | 8.39098 | 25195 ft | 377 kts | 162° |
| 2026-04-28 18:51 | 55.52330 | 8.40613 | 24741 ft | 373 kts | 162° |
| 2026-04-28 18:51 | 55.49883 | 8.42109 | 24278 ft | 371 kts | 162° |
| 2026-04-28 18:51 | 55.47451 | 8.43596 | 23790 ft | 369 kts | 162° |
| 2026-04-28 18:52 | 55.45032 | 8.45079 | 23293 ft | 365 kts | 162° |
| 2026-04-28 18:52 | 55.42645 | 8.46539 | 22839 ft | 362 kts | 162° |
| 2026-04-28 18:52 | 55.40273 | 8.47984 | 22371 ft | 359 kts | 162° |
| 2026-04-28 18:52 | 55.37913 | 8.49422 | 21905 ft | 357 kts | 162° |
| 2026-04-28 18:53 | 55.35573 | 8.50851 | 21432 ft | 356 kts | 162° |
| 2026-04-28 18:53 | 55.33238 | 8.52277 | 20969 ft | 355 kts | 162° |
| 2026-04-28 18:53 | 55.30908 | 8.53698 | 20494 ft | 353 kts | 162° |
| 2026-04-28 18:53 | 55.28583 | 8.55111 | 20016 ft | 353 kts | 162° |
| 2026-04-28 18:54 | 55.26266 | 8.56511 | 19548 ft | 352 kts | 162° |
| 2026-04-28 18:54 | 55.23976 | 8.57892 | 19087 ft | 351 kts | 162° |
| 2026-04-28 18:54 | 55.21668 | 8.59282 | 18606 ft | 351 kts | 162° |
| 2026-04-28 18:54 | 55.19350 | 8.60681 | 18113 ft | 350 kts | 161° |
| 2026-04-28 18:55 | 55.17054 | 8.62067 | 17651 ft | 348 kts | 161° |
| 2026-04-28 18:55 | 55.15541 | 8.62980 | 17356 ft | 347 kts | 161° |
| 2026-04-28 18:55 | 55.12502 | 8.64808 | 16752 ft | 345 kts | 161° |
| 2026-04-28 18:55 | 55.10239 | 8.66167 | 16309 ft | 344 kts | 161° |
| 2026-04-28 18:56 | 55.07980 | 8.67524 | 15862 ft | 343 kts | 161° |
| 2026-04-28 18:56 | 55.05732 | 8.68873 | 15418 ft | 342 kts | 161° |
| 2026-04-28 18:56 | 55.03481 | 8.70223 | 14975 ft | 341 kts | 160° |
| 2026-04-28 18:56 | 55.01236 | 8.71566 | 14526 ft | 340 kts | 160° |
| 2026-04-28 18:57 | 54.99026 | 8.72884 | 14068 ft | 340 kts | 160° |
| 2026-04-28 18:57 | 54.96764 | 8.74230 | 13579 ft | 338 kts | 160° |
| 2026-04-28 18:57 | 54.94574 | 8.75533 | 13128 ft | 336 kts | 160° |
| 2026-04-28 18:57 | 54.92344 | 8.76857 | 12676 ft | 333 kts | 161° |
| 2026-04-28 18:58 | 54.90090 | 8.77703 | 12234 ft | 331 kts | 174° |
| 2026-04-28 18:58 | 54.87821 | 8.77666 | 11805 ft | 329 kts | 187° |
| 2026-04-28 18:58 | 54.85568 | 8.77023 | 11361 ft | 326 kts | 190° |
| 2026-04-28 18:58 | 54.83335 | 8.76380 | 10913 ft | 325 kts | 189° |
| 2026-04-28 18:59 | 54.81112 | 8.75759 | 10575 ft | 320 kts | 189° |
| 2026-04-28 18:59 | 54.78958 | 8.75164 | 10454 ft | 307 kts | 189° |
| 2026-04-28 18:59 | 54.76884 | 8.74594 | 10292 ft | 298 kts | 189° |
| 2026-04-28 18:59 | 54.74831 | 8.74084 | 9732 ft | 301 kts | 183° |
| 2026-04-28 19:00 | 54.72766 | 8.74637 | 9153 ft | 304 kts | 157° |
| 2026-04-28 19:00 | 54.70977 | 8.76438 | 8817 ft | 287 kts | 145° |
| 2026-04-28 19:00 | 54.69390 | 8.78331 | 8652 ft | 266 kts | 144° |
| 2026-04-28 19:00 | 54.67914 | 8.80109 | 8350 ft | 253 kts | 144° |
| 2026-04-28 19:01 | 54.66483 | 8.81833 | 7849 ft | 250 kts | 144° |
| 2026-04-28 19:01 | 54.65057 | 8.83553 | 7302 ft | 249 kts | 144° |
| 2026-04-28 19:01 | 54.63632 | 8.85190 | 6694 ft | 245 kts | 143° |
| 2026-04-28 19:01 | 54.62199 | 8.86742 | 6174 ft | 242 kts | 144° |
| 2026-04-28 19:02 | 54.60719 | 8.88114 | 5606 ft | 244 kts | 159° |
| 2026-04-28 19:02 | 54.59031 | 8.88389 | 5075 ft | 247 kts | 188° |
| 2026-04-28 19:02 | 54.57450 | 8.87277 | 4516 ft | 247 kts | 219° |
| 2026-04-28 19:02 | 54.56659 | 8.85890 | 4162 ft | 244 kts | 239° |
| 2026-04-28 19:03 | 54.56042 | 8.83243 | 3631 ft | 236 kts | 268° |
| 2026-04-28 19:03 | 54.56169 | 8.80504 | 3131 ft | 225 kts | 294° |
| 2026-04-28 19:03 | 54.56933 | 8.78238 | 3031 ft | 219 kts | 317° |
| 2026-04-28 19:03 | 54.58034 | 8.76413 | 3030 ft | 220 kts | 321° |
| 2026-04-28 19:04 | 54.59151 | 8.74597 | 3029 ft | 221 kts | 319° |
| 2026-04-28 19:04 | 54.60174 | 8.72607 | 3022 ft | 221 kts | 319° |
| 2026-04-28 19:04 | 54.61336 | 8.70892 | 3031 ft | 219 kts | 327° |
| 2026-04-28 19:04 | 54.62549 | 8.69379 | 3024 ft | 208 kts | 328° |
| 2026-04-28 19:05 | 54.63702 | 8.67977 | 3024 ft | 200 kts | 329° |
| 2026-04-28 19:05 | 54.64826 | 8.66611 | 3029 ft | 198 kts | 328° |
| 2026-04-28 19:05 | 54.65917 | 8.65280 | 3026 ft | 187 kts | 328° |
| 2026-04-28 19:05 | 54.66947 | 8.64022 | 3035 ft | 173 kts | 329° |
| 2026-04-28 19:06 | 54.67884 | 8.62876 | 3031 ft | 157 kts | 329° |
| 2026-04-28 19:06 | 54.68715 | 8.61859 | 3032 ft | 138 kts | 330° |
| 2026-04-28 19:06 | 54.69477 | 8.60930 | 3033 ft | 132 kts | 330° |
| 2026-04-28 19:06 | 54.70220 | 8.60023 | 3029 ft | 130 kts | 330° |
| 2026-04-28 19:07 | 54.70956 | 8.59125 | 3027 ft | 129 kts | 330° |
| 2026-04-28 19:07 | 54.71689 | 8.58229 | 3025 ft | 129 kts | 330° |
| 2026-04-28 19:07 | 54.72421 | 8.57332 | 3025 ft | 129 kts | 329° |
| 2026-04-28 19:07 | 54.73154 | 8.56435 | 3021 ft | 129 kts | 329° |
| 2026-04-28 19:08 | 54.73887 | 8.55537 | 3020 ft | 129 kts | 329° |
| 2026-04-28 19:08 | 54.74620 | 8.54639 | 3020 ft | 129 kts | 329° |
| 2026-04-28 19:08 | 54.75353 | 8.53740 | 3024 ft | 129 kts | 329° |
| 2026-04-28 19:08 | 54.76088 | 8.52837 | 3016 ft | 130 kts | 329° |
| 2026-04-28 19:09 | 54.76823 | 8.51936 | 3019 ft | 130 kts | 329° |
| 2026-04-28 19:09 | 54.77560 | 8.51031 | 3012 ft | 130 kts | 329° |
| 2026-04-28 19:09 | 54.78298 | 8.50123 | 2929 ft | 130 kts | 328° |
| 2026-04-28 19:09 | 54.79039 | 8.49212 | 2805 ft | 131 kts | 328° |
| 2026-04-28 19:10 | 54.79781 | 8.48300 | 2635 ft | 131 kts | 328° |
| 2026-04-28 19:10 | 54.80525 | 8.47385 | 2463 ft | 131 kts | 328° |
| 2026-04-28 19:10 | 54.81270 | 8.46460 | 2282 ft | 132 kts | 328° |
| 2026-04-28 19:10 | 54.82013 | 8.45526 | 2106 ft | 132 kts | 328° |
| 2026-04-28 19:11 | 54.82732 | 8.44652 | 1918 ft | 133 kts | 329° |
| 2026-04-28 19:11 | 54.83364 | 8.43889 | 1761 ft | 133 kts | 328° |
| 2026-04-28 19:11 | 54.84120 | 8.42957 | 1554 ft | 133 kts | 328° |
| 2026-04-28 19:11 | 54.84874 | 8.42014 | 1390 ft | 134 kts | 327° |
| 2026-04-28 19:12 | 54.85631 | 8.41082 | 1218 ft | 134 kts | 329° |
| 2026-04-28 19:12 | 54.86394 | 8.40148 | 1014 ft | 134 kts | 328° |
| 2026-04-28 19:12 | 54.87148 | 8.39209 | 823 ft | 132 kts | 327° |
| 2026-04-28 19:12 | 54.87889 | 8.38298 | 669 ft | 129 kts | 328° |
| 2026-04-28 19:13 | 54.88616 | 8.37408 | 451 ft | 126 kts | 326° |
| 2026-04-28 19:13 | 54.89320 | 8.36519 | 301 ft | 125 kts | 324° |
| 2026-04-28 19:13 | 54.90021 | 8.35646 | 137 ft | 123 kts | 326° |
| 2026-04-28 19:13 | 54.90696 | 8.34801 | 42 ft | 115 kts | 325° |
| 2026-04-28 19:14 | 54.91166 | 8.34239 | 43 ft | 40 kts | 325° |
| 2026-04-28 19:14 | 54.91226 | 8.34167 | 43 ft | 9 kts | 326° |
| 2026-04-28 19:14 | 54.91342 | 8.34089 | 41 ft | 17 kts | 15° |
| 2026-04-28 19:14 | 54.91394 | 8.34232 | 44 ft | 15 kts | 53° |
| 2026-04-28 19:15 | 54.91468 | 8.34469 | 46 ft | 27 kts | 61° |
| 2026-04-28 19:15 | 54.91565 | 8.34755 | 51 ft | 20 kts | 57° |
| 2026-04-28 19:15 | 54.91581 | 8.34802 | 53 ft | 1 kts | 60° |
| 2026-04-28 19:15 | 54.91599 | 8.34859 | 55 ft | 13 kts | 60° |
| 2026-04-28 19:16 | 54.91634 | 8.34959 | 52 ft | 4 kts | 57° |
| 2026-04-28 19:16 | 54.91666 | 8.35101 | 59 ft | 13 kts | 72° |
| 2026-04-28 19:16 | 54.91694 | 8.35171 | 59 ft | 2 kts | 303° |
| 2026-04-28 19:16 | 54.91672 | 8.35064 | 57 ft | 19 kts | 245° |
| 2026-04-28 19:17 | 54.91590 | 8.34838 | 53 ft | 28 kts | 240° |
| 2026-04-28 19:17 | 54.91469 | 8.34473 | 43 ft | 41 kts | 239° |
| 2026-04-28 19:17 | 54.91321 | 8.34023 | 41 ft | 43 kts | 241° |
| 2026-04-28 19:17 | 54.91169 | 8.33588 | 38 ft | 41 kts | 239° |
| 2026-04-28 19:18 | 54.91057 | 8.33226 | 38 ft | 16 kts | 269° |
| 2026-04-28 19:18 | 54.91077 | 8.33193 | 38 ft | 14 kts | 329° |
| 2026-04-28 19:18 | 54.91216 | 8.33179 | 39 ft | 18 kts | 360° |
| 2026-04-28 19:18 | 54.91293 | 8.33201 | 40 ft | 7 kts | 21° |
| 2026-04-28 19:19 | 54.91299 | 8.33205 | 40 ft | 0 kts | 21° |
| 2026-04-28 19:19 | 54.91302 | 8.33206 | 40 ft | 3 kts | 21° |
| 2026-04-28 19:19 | 54.91333 | 8.33155 | 40 ft | 13 kts | 257° |
| 2026-04-28 19:19 | 54.91303 | 8.33106 | 40 ft | 0 kts | 256° |